createdAt,value
2022-08-01T00:00:14.493Z,1.75
2022-08-01T00:02:41.723Z,1.90
2022-08-01T00:05:10.071Z,1.63
2022-08-01T00:07:37.554Z,2.10
2022-08-01T00:10:05.537Z,1.80
2022-08-01T00:12:32.462Z,1.58
2022-08-01T00:14:59.349Z,1.73
2022-08-01T00:17:26.209Z,1.60
2022-08-01T00:19:53.379Z,2.25
2022-08-01T00:22:20.286Z,1.85
2022-08-01T00:24:47.092Z,1.35
2022-08-01T00:27:13.895Z,1.55
2022-08-01T00:30:12.166Z,1.85
2022-08-01T00:32:27.610Z,2.45
2022-08-01T00:34:54.428Z,1.40
2022-08-01T00:37:21.249Z,1.55
2022-08-01T00:39:48.018Z,1.63
2022-08-01T00:42:14.883Z,1.60
2022-08-01T00:44:41.930Z,2.35
2022-08-01T00:47:10.038Z,1.67
2022-08-01T00:49:37.017Z,2.25
2022-08-01T00:52:05.811Z,2.03
2022-08-01T00:54:33.121Z,2.20
2022-08-01T00:57:00.086Z,1.90
2022-08-01T00:59:27.629Z,1.42
2022-08-01T01:01:55.265Z,1.63
2022-08-01T01:04:23.421Z,1.60
2022-08-01T01:07:05.488Z,1.17
2022-08-01T01:09:34.904Z,1.20
2022-08-01T01:12:16.773Z,1.42
2022-08-01T01:15:11.503Z,2.30
2022-08-01T01:17:48.259Z,2.47
2022-08-01T01:20:19.179Z,1.73
2022-08-01T01:23:03.108Z,1.55
2022-08-01T01:25:47.869Z,1.88
2022-08-01T01:28:45.509Z,2.20
2022-08-01T01:31:13.600Z,1.55
2022-08-01T01:33:47.247Z,2.40
2022-08-01T01:36:15.708Z,2.53
2022-08-01T01:38:44.301Z,1.80
2022-08-01T01:41:12.600Z,1.85
2022-08-01T01:43:40.724Z,2.17
2022-08-01T01:46:08.792Z,2.13
2022-08-01T01:48:36.468Z,1.88
2022-08-01T01:51:04.548Z,1.27
2022-08-01T01:53:33.466Z,1.77
2022-08-01T01:56:02.027Z,2.17
2022-08-01T01:58:29.257Z,1.80
2022-08-01T02:00:58.090Z,1.83
2022-08-01T02:03:25.606Z,2.50
2022-08-01T02:05:54.356Z,2.42
2022-08-01T02:08:21.514Z,2.03
2022-08-01T02:11:07.264Z,1.88
2022-08-01T02:13:36.134Z,1.48
2022-08-01T02:16:04.286Z,1.45
2022-08-01T02:18:31.277Z,1.70
2022-08-01T02:20:59.190Z,1.13
2022-08-01T02:23:29.734Z,1.40
2022-08-01T02:26:10.344Z,1.92
2022-08-01T02:29:07.872Z,1.20
2022-08-01T02:31:37.133Z,2.05
2022-08-01T02:34:08.053Z,2.05
2022-08-01T02:39:14.251Z,2.38
2022-08-01T02:41:43.850Z,1.23
2022-08-01T02:44:12.218Z,2.03
2022-08-01T02:46:42.308Z,2.33
2022-08-01T02:49:10.494Z,1.30
2022-08-01T02:51:37.665Z,1.67
2022-08-01T02:54:06.573Z,2.33
2022-08-01T02:56:36.671Z,1.65
2022-08-01T02:59:06.639Z,2.10
2022-08-01T03:01:36.241Z,1.55
2022-08-01T03:04:05.865Z,1.50
2022-08-01T03:06:33.947Z,1.80
2022-08-01T03:09:02.827Z,1.65
2022-08-01T03:11:30.884Z,2.20
2022-08-01T03:14:00.717Z,1.35
2022-08-01T03:16:28.082Z,1.83
2022-08-01T03:18:56.973Z,1.50
2022-08-01T03:21:24.734Z,1.95
2022-08-01T03:23:55.092Z,1.92
2022-08-01T03:26:22.917Z,1.77
2022-08-01T03:28:50.114Z,1.75
2022-08-01T03:31:17.466Z,2.20
2022-08-01T03:33:44.263Z,2.28
2022-08-01T03:36:11.787Z,1.40
2022-08-01T03:38:40.542Z,2.08
2022-08-01T03:41:14.175Z,1.60
2022-08-01T03:43:49.684Z,2.53
2022-08-01T03:46:24.851Z,1.95
2022-08-01T03:48:54.269Z,1.58
2022-08-01T03:51:22.701Z,1.80
2022-08-01T03:53:50.815Z,2.22
2022-08-01T03:56:20.587Z,1.55
2022-08-01T03:58:50.039Z,2.20
2022-08-01T04:01:18.430Z,1.80
2022-08-01T04:03:45.460Z,1.98
2022-08-01T04:06:14.096Z,1.90
2022-08-01T04:08:42.251Z,1.20
2022-08-01T04:11:10.400Z,1.90
2022-08-01T04:13:38.549Z,1.63
2022-08-01T04:16:05.991Z,2.58
2022-08-01T04:18:33.274Z,1.70
2022-08-01T04:21:00.303Z,1.55
2022-08-01T04:23:27.853Z,1.52
2022-08-01T04:25:55.730Z,1.60
2022-08-01T04:28:23.315Z,2.38
2022-08-01T04:30:51.748Z,2.05
2022-08-01T04:33:19.582Z,1.90
2022-08-01T04:36:02.294Z,2.30
2022-08-01T04:38:31.702Z,1.48
2022-08-01T04:40:58.935Z,1.50
2022-08-01T04:43:35.752Z,2.35
2022-08-01T04:46:04.846Z,1.85
2022-08-01T04:48:32.964Z,2.35
2022-08-01T04:51:00.183Z,1.60
2022-08-01T04:53:27.682Z,2.20
2022-08-01T04:55:54.739Z,2.33
2022-08-01T04:58:21.566Z,1.65
2022-08-01T05:00:48.448Z,1.50
2022-08-01T05:03:15.330Z,2.40
2022-08-01T05:05:42.133Z,2.78
2022-08-01T05:08:08.987Z,1.65
2022-08-01T05:10:35.827Z,1.75
2022-08-01T05:13:02.654Z,1.92
2022-08-01T05:15:29.446Z,2.55
2022-08-01T05:17:57.583Z,2.08
2022-08-01T05:20:24.473Z,2.20
2022-08-01T05:22:51.230Z,2.22
2022-08-01T05:25:19.310Z,2.40
2022-08-01T05:27:49.070Z,1.45
2022-08-01T05:30:17.977Z,1.77
2022-08-01T05:32:44.858Z,1.95
2022-08-01T05:35:11.868Z,1.75
2022-08-01T05:37:38.646Z,1.65
2022-08-01T05:40:06.485Z,1.77
2022-08-01T05:42:33.299Z,1.45
2022-08-01T05:45:00.196Z,1.90
2022-08-01T05:47:27.087Z,1.98
2022-08-01T05:49:53.927Z,2.10
2022-08-01T05:52:20.713Z,1.67
2022-08-01T05:54:47.534Z,2.78
2022-08-01T05:57:14.795Z,1.63
2022-08-01T05:59:42.239Z,1.90
2022-08-01T06:02:09.805Z,2.15
2022-08-01T06:04:36.976Z,1.90
2022-08-01T06:07:03.857Z,2.38
2022-08-01T06:09:31.829Z,1.92
2022-08-01T06:11:58.797Z,2.03
2022-08-01T06:14:25.816Z,1.58
2022-08-01T06:16:52.626Z,2.33
2022-08-01T06:19:19.521Z,2.38
2022-08-01T06:21:46.287Z,2.40
2022-08-01T06:24:13.129Z,1.80
2022-08-01T06:26:39.934Z,1.73
2022-08-01T06:29:06.758Z,2.33
2022-08-01T06:31:36.806Z,2.15
2022-08-01T06:34:03.768Z,2.97
2022-08-01T06:36:30.588Z,2.50
2022-08-01T06:38:57.365Z,1.95
2022-08-01T06:41:24.615Z,1.92
2022-08-01T06:43:51.391Z,2.55
2022-08-01T06:46:18.168Z,2.35
2022-08-01T06:48:45.114Z,2.65
2022-08-01T06:51:16.392Z,1.85
2022-08-01T06:53:44.218Z,2.05
2022-08-01T06:56:11.874Z,2.53
2022-08-01T06:58:38.751Z,2.65
2022-08-01T07:01:09.103Z,2.13
2022-08-01T07:03:53.904Z,2.25
2022-08-01T07:06:23.791Z,2.08
2022-08-01T07:08:50.782Z,2.25
2022-08-01T07:11:17.931Z,1.50
2022-08-01T07:13:46.755Z,2.40
2022-08-01T07:16:15.973Z,2.00
2022-08-01T07:18:43.004Z,2.42
2022-08-01T07:21:38.950Z,2.28
2022-08-01T07:23:56.718Z,2.30
2022-08-01T07:26:23.534Z,2.20
2022-08-01T07:28:50.363Z,2.45
2022-08-01T07:31:17.322Z,2.67
2022-08-01T07:33:48.977Z,2.53
2022-08-01T07:36:19.671Z,2.30
2022-08-01T07:38:47.149Z,1.55
2022-08-01T07:41:13.979Z,2.20
2022-08-01T07:43:42.845Z,2.28
2022-08-01T07:46:12.344Z,3.00
2022-08-01T07:48:39.136Z,2.40
2022-08-01T07:51:06.100Z,2.80
2022-08-01T07:53:32.921Z,2.63
2022-08-01T07:56:00.784Z,2.20
2022-08-01T07:58:27.648Z,2.67
2022-08-01T08:00:54.458Z,1.83
2022-08-01T08:03:21.275Z,1.65
2022-08-01T08:05:58.347Z,1.80
2022-08-01T08:08:26.895Z,1.33
2022-08-01T08:10:53.682Z,2.40
2022-08-01T08:13:20.987Z,2.75
2022-08-01T08:15:48.698Z,2.38
2022-08-01T08:18:16.639Z,1.85
2022-08-01T08:20:43.711Z,1.75
2022-08-01T08:23:43.054Z,1.80
2022-08-01T08:26:13.722Z,1.90
2022-08-01T08:28:40.890Z,1.70
2022-08-01T08:31:25.330Z,2.25
2022-08-01T08:33:56.331Z,2.50
2022-08-01T08:36:30.813Z,1.70
2022-08-01T08:39:01.427Z,1.52
2022-08-01T08:41:36.944Z,2.28
2022-08-01T08:44:06.866Z,2.35
2022-08-01T08:46:45.751Z,2.40
2022-08-01T08:49:15.410Z,1.92
2022-08-01T08:51:43.109Z,1.85
2022-08-01T08:54:12.550Z,1.50
2022-08-01T08:56:39.837Z,2.03
2022-08-01T08:59:06.673Z,1.60
2022-08-01T09:01:36.332Z,1.67
2022-08-01T09:04:04.589Z,1.60
2022-08-01T09:06:32.471Z,1.95
2022-08-01T09:08:59.821Z,2.15
2022-08-01T09:11:27.096Z,1.85
2022-08-01T09:14:23.452Z,2.17
2022-08-01T09:17:01.996Z,1.90
2022-08-01T09:19:41.583Z,1.63
2022-08-01T09:22:19.206Z,2.33
2022-08-01T09:24:59.325Z,1.50
2022-08-01T09:27:26.570Z,1.77
2022-08-01T09:30:00.662Z,2.15
2022-08-01T09:32:34.667Z,2.10
2022-08-01T09:35:30.239Z,1.90
2022-08-01T09:38:28.190Z,1.70
2022-08-01T09:41:01.477Z,2.10
2022-08-01T09:43:31.229Z,1.80
2022-08-01T09:45:59.341Z,1.83
2022-08-01T09:48:28.358Z,1.42
2022-08-01T09:51:04.019Z,1.80
2022-08-01T09:53:52.267Z,1.70
2022-08-01T09:56:22.047Z,2.38
2022-08-01T09:59:00.397Z,1.90
2022-08-01T10:01:37.359Z,1.60
2022-08-01T10:04:15.475Z,1.13
2022-08-01T10:06:55.290Z,1.60
2022-08-01T10:09:36.045Z,1.10
2022-08-01T10:12:08.694Z,1.35
2022-08-01T10:14:37.673Z,1.20
2022-08-01T10:17:05.872Z,1.50
2022-08-01T10:19:33.680Z,1.10
2022-08-01T10:22:01.615Z,1.02
2022-08-01T10:24:30.783Z,1.90
2022-08-01T10:27:09.546Z,1.80
2022-08-01T10:30:19.208Z,1.20
2022-08-01T10:32:53.080Z,1.42
2022-08-01T10:35:46.076Z,1.13
2022-08-01T10:38:13.581Z,0.90
2022-08-01T10:40:42.597Z,1.38
2022-08-01T10:43:11.133Z,1.10
2022-08-01T10:45:38.611Z,1.17
2022-08-01T10:48:35.664Z,1.10
2022-08-01T10:51:17.777Z,1.45
2022-08-01T10:53:54.051Z,1.00
2022-08-01T10:56:27.063Z,1.25
2022-08-01T10:59:06.736Z,1.20
2022-08-01T11:01:38.714Z,1.17
2022-08-01T11:04:16.911Z,0.90
2022-08-01T11:06:44.376Z,1.33
2022-08-01T11:09:16.568Z,1.17
2022-08-01T11:12:02.903Z,1.30
2022-08-01T11:14:54.735Z,1.77
2022-08-01T11:17:42.174Z,1.30
2022-08-01T11:20:14.509Z,1.30
2022-08-01T11:23:03.215Z,1.40
2022-08-01T11:26:05.760Z,1.42
2022-08-01T11:28:32.899Z,1.00
2022-08-01T11:31:11.758Z,1.00
2022-08-01T11:33:45.881Z,1.17
2022-08-01T11:36:14.429Z,1.20
2022-08-01T11:38:50.309Z,0.70
2022-08-01T11:41:36.923Z,1.15
2022-08-01T11:44:07.955Z,0.88
2022-08-01T11:47:09.047Z,1.00
2022-08-01T11:49:49.272Z,0.80
2022-08-01T11:52:29.806Z,1.05
2022-08-01T11:55:03.524Z,0.93
2022-08-01T11:57:35.614Z,0.93
2022-08-01T12:00:16.951Z,1.10
2022-08-01T12:02:46.416Z,0.90
2022-08-01T12:05:19.389Z,0.75
2022-08-01T12:07:47.374Z,0.80
2022-08-01T12:10:16.804Z,0.80
2022-08-01T12:13:05.338Z,0.90
2022-08-01T12:15:34.772Z,0.77
2022-08-01T12:18:03.789Z,1.02
2022-08-01T12:20:32.888Z,0.90
2022-08-01T12:23:02.629Z,0.98
2022-08-01T12:25:29.783Z,0.90
2022-08-01T12:28:04.363Z,0.70
2022-08-01T12:30:32.114Z,0.95
2022-08-01T12:32:59.450Z,1.00
2022-08-01T12:35:27.830Z,0.82
2022-08-01T12:37:56.973Z,0.60
2022-08-01T12:40:31.136Z,0.80
2022-08-01T12:43:00.706Z,0.80
2022-08-01T12:45:33.622Z,0.70
2022-08-01T12:48:01.785Z,0.77
2022-08-01T12:50:30.814Z,1.13
2022-08-01T12:52:58.558Z,0.73
2022-08-01T12:55:34.035Z,0.65
2022-08-01T12:58:15.393Z,0.70
2022-08-01T13:00:45.271Z,0.68
2022-08-01T13:03:18.175Z,0.98
2022-08-01T13:05:49.495Z,0.90
2022-08-01T13:08:20.867Z,0.70
2022-08-01T13:10:48.399Z,0.88
2022-08-01T13:13:27.978Z,0.88
2022-08-01T13:16:06.374Z,0.90
2022-08-01T13:18:34.483Z,0.75
2022-08-01T13:21:18.873Z,0.77
2022-08-01T13:24:04.136Z,0.70
2022-08-01T13:26:59.654Z,0.50
2022-08-01T13:29:31.337Z,0.70
2022-08-01T13:31:58.980Z,1.10
2022-08-01T13:34:33.689Z,1.30
2022-08-01T13:37:02.570Z,1.00
2022-08-01T13:39:45.028Z,0.95
2022-08-01T13:42:19.069Z,1.05
2022-08-01T13:44:46.574Z,0.73
2022-08-01T13:47:15.712Z,0.80
2022-08-01T13:49:44.396Z,0.80
2022-08-01T13:52:11.567Z,0.80
2022-08-01T13:54:38.489Z,0.80
2022-08-01T13:57:05.361Z,0.73
2022-08-01T13:59:32.664Z,0.82
2022-08-01T14:01:59.506Z,0.73
2022-08-01T14:04:26.936Z,0.52
2022-08-01T14:06:54.254Z,0.45
2022-08-01T14:09:24.657Z,0.80
2022-08-01T14:11:51.955Z,0.75
2022-08-01T14:14:18.797Z,0.98
2022-08-01T14:16:48.631Z,0.57
2022-08-01T14:19:17.621Z,0.70
2022-08-01T14:21:46.238Z,1.02
2022-08-01T14:24:13.105Z,0.60
2022-08-01T14:26:40.022Z,0.88
2022-08-01T14:29:06.867Z,0.85
2022-08-01T14:31:34.623Z,0.60
2022-08-01T14:34:01.890Z,0.40
2022-08-01T14:36:31.498Z,0.50
2022-08-01T14:39:00.470Z,0.57
2022-08-01T14:41:28.717Z,0.85
2022-08-01T14:43:58.388Z,0.88
2022-08-01T14:46:25.364Z,0.90
2022-08-01T14:48:52.905Z,0.70
2022-08-01T14:51:19.713Z,0.68
2022-08-01T14:53:50.716Z,0.47
2022-08-01T14:56:20.081Z,0.65
2022-08-01T14:58:46.853Z,0.90
2022-08-01T15:01:15.959Z,0.77
2022-08-01T15:03:42.944Z,0.75
2022-08-01T15:06:12.287Z,0.77
2022-08-01T15:08:39.290Z,0.88
2022-08-01T15:11:06.393Z,0.70
2022-08-01T15:13:33.214Z,0.98
2022-08-01T15:16:00.473Z,1.10
2022-08-01T15:18:30.439Z,0.60
2022-08-01T15:21:01.100Z,0.90
2022-08-01T15:23:27.930Z,0.60
2022-08-01T15:25:54.793Z,0.60
2022-08-01T15:28:21.557Z,0.75
2022-08-01T15:30:48.385Z,0.90
2022-08-01T15:33:15.241Z,0.68
2022-08-01T15:35:43.605Z,0.85
2022-08-01T15:38:10.467Z,0.70
2022-08-01T15:40:37.374Z,0.85
2022-08-01T15:43:04.199Z,1.00
2022-08-01T15:45:47.467Z,0.90
2022-08-01T15:48:15.981Z,0.80
2022-08-01T15:50:42.755Z,0.80
2022-08-01T15:53:09.552Z,1.23
2022-08-01T15:55:38.292Z,0.88
2022-08-01T15:58:06.033Z,0.60
2022-08-01T16:00:38.732Z,1.13
2022-08-01T16:03:07.917Z,1.00
2022-08-01T16:05:41.007Z,0.65
2022-08-01T16:08:11.592Z,0.70
2022-08-01T16:10:38.479Z,0.80
2022-08-01T16:13:07.356Z,0.70
2022-08-01T16:15:39.375Z,0.85
2022-08-01T16:18:07.554Z,1.00
2022-08-01T16:20:34.520Z,1.17
2022-08-01T16:23:01.605Z,0.93
2022-08-01T16:25:28.486Z,1.30
2022-08-01T16:27:55.318Z,1.10
2022-08-01T16:30:22.236Z,1.00
2022-08-01T16:32:53.849Z,1.15
2022-08-01T16:35:30.716Z,0.70
2022-08-01T16:38:04.441Z,0.80
2022-08-01T16:40:31.510Z,1.10
2022-08-01T16:43:14.460Z,0.90
2022-08-01T16:45:43.171Z,0.98
2022-08-01T16:48:20.567Z,1.10
2022-08-01T16:50:52.948Z,1.00
2022-08-01T16:53:20.977Z,0.70
2022-08-01T16:55:50.519Z,1.25
2022-08-01T16:58:27.417Z,1.20
2022-08-01T17:00:57.431Z,0.90
2022-08-01T17:03:51.466Z,0.90
2022-08-01T17:06:13.039Z,1.00
2022-08-01T17:08:46.727Z,1.30
2022-08-01T17:11:15.149Z,1.50
2022-08-01T17:13:42.345Z,0.90
2022-08-01T17:16:09.882Z,1.25
2022-08-01T17:18:36.830Z,1.08
2022-08-01T17:21:03.869Z,1.60
2022-08-01T17:23:31.978Z,1.60
2022-08-01T17:25:59.409Z,1.65
2022-08-01T17:28:26.362Z,1.20
2022-08-01T17:30:53.224Z,1.30
2022-08-01T17:33:20.675Z,1.63
2022-08-01T17:35:47.549Z,1.30
2022-08-01T17:38:14.672Z,1.35
2022-08-01T17:40:41.675Z,1.25
2022-08-01T17:43:08.915Z,1.85
2022-08-01T17:45:47.600Z,1.38
2022-08-01T17:48:19.071Z,0.80
2022-08-01T17:50:47.379Z,1.33
2022-08-01T17:53:15.479Z,1.30
2022-08-01T17:55:56.151Z,1.40
2022-08-01T17:58:49.132Z,1.55
2022-08-01T18:01:15.871Z,1.30
2022-08-01T18:03:43.479Z,1.20
2022-08-01T18:06:13.679Z,1.25
2022-08-01T18:08:42.022Z,1.27
2022-08-01T18:11:09.547Z,1.58
2022-08-01T18:13:40.293Z,1.10
2022-08-01T18:16:09.203Z,1.17
2022-08-01T18:18:36.744Z,1.55
2022-08-01T18:21:04.384Z,1.65
2022-08-01T18:23:33.542Z,1.60
2022-08-01T18:26:02.471Z,1.52
2022-08-01T18:28:37.945Z,1.40
2022-08-01T18:31:06.314Z,2.10
2022-08-01T18:33:34.258Z,1.50
2022-08-01T18:36:03.666Z,1.20
2022-08-01T18:38:32.834Z,1.43
2022-08-01T18:41:00.198Z,1.73
2022-08-01T18:43:27.359Z,1.48
2022-08-01T18:45:57.107Z,1.45
2022-08-01T18:48:24.438Z,1.33
2022-08-01T18:50:51.514Z,1.48
2022-08-01T18:53:18.883Z,2.22
2022-08-01T18:55:45.700Z,1.25
2022-08-01T18:58:12.567Z,1.58
2022-08-01T19:00:40.042Z,1.42
2022-08-01T19:03:07.890Z,1.90
2022-08-01T19:05:36.073Z,1.17
2022-08-01T19:08:04.749Z,1.23
2022-08-01T19:10:32.584Z,1.60
2022-08-01T19:13:00.412Z,1.35
2022-08-01T19:15:27.255Z,1.50
2022-08-01T19:17:54.047Z,1.58
2022-08-01T19:20:20.866Z,1.50
2022-08-01T19:22:47.680Z,2.40
2022-08-01T19:25:15.442Z,1.77
2022-08-01T19:27:46.364Z,1.85
2022-08-01T19:32:42.803Z,1.75
2022-08-01T19:35:11.870Z,1.95
2022-08-01T19:37:47.766Z,1.48
2022-08-01T19:40:27.462Z,1.95
2022-08-01T19:42:57.052Z,2.20
2022-08-01T19:45:27.869Z,1.83
2022-08-01T19:47:56.828Z,2.00
2022-08-01T19:50:28.408Z,2.10
2022-08-01T19:53:02.563Z,1.70
2022-08-01T19:55:39.319Z,1.67
2022-08-01T19:58:28.154Z,2.08
2022-08-01T20:00:55.818Z,1.83
2022-08-01T20:03:23.341Z,2.20
2022-08-01T20:05:52.163Z,2.22
2022-08-01T20:08:19.841Z,1.85
2022-08-01T20:10:47.786Z,1.95
2022-08-01T20:13:14.888Z,1.67
2022-08-01T20:15:43.437Z,2.25
2022-08-01T20:18:10.226Z,1.70
2022-08-01T20:20:37.932Z,1.60
2022-08-01T20:23:09.816Z,2.28
2022-08-01T20:25:39.942Z,1.70
2022-08-01T20:28:10.117Z,2.30
2022-08-01T20:30:38.289Z,2.10
2022-08-01T20:33:07.404Z,2.30
2022-08-01T20:35:52.212Z,1.45
2022-08-01T20:38:23.116Z,1.90
2022-08-01T20:40:51.778Z,1.88
2022-08-01T20:43:21.028Z,2.15
2022-08-01T20:45:49.372Z,2.78
2022-08-01T20:48:17.390Z,2.05
2022-08-01T20:51:04.448Z,2.05
2022-08-01T20:53:32.677Z,2.72
2022-08-01T20:56:05.085Z,1.80
2022-08-01T20:58:40.861Z,2.00
2022-08-01T21:01:09.571Z,1.73
2022-08-01T21:03:40.954Z,1.25
2022-08-01T21:08:47.404Z,2.28
2022-08-01T21:11:18.125Z,2.10
2022-08-01T21:13:48.113Z,2.72
2022-08-01T21:16:25.341Z,2.17
2022-08-01T21:19:19.015Z,1.75
2022-08-01T21:21:50.654Z,1.77
2022-08-01T21:24:19.303Z,2.60
2022-08-01T21:26:46.673Z,2.08
2022-08-01T21:29:15.278Z,1.60
2022-08-01T21:31:42.245Z,2.15
2022-08-01T21:34:09.822Z,1.92
2022-08-01T21:36:36.803Z,1.70
2022-08-01T21:39:06.142Z,2.30
2022-08-01T21:41:56.672Z,2.05
2022-08-01T21:44:20.237Z,1.85
2022-08-01T21:46:48.330Z,2.80
2022-08-01T21:49:15.436Z,2.28
2022-08-01T21:51:55.219Z,2.50
2022-08-01T21:54:45.379Z,2.03
2022-08-01T21:57:40.238Z,2.42
2022-08-01T22:00:20.887Z,2.08
2022-08-01T22:02:58.451Z,2.15
2022-08-01T22:05:49.991Z,2.53
2022-08-01T22:08:16.504Z,1.85
2022-08-01T22:10:43.549Z,2.13
2022-08-01T22:13:11.837Z,2.70
2022-08-01T22:15:45.138Z,1.90
2022-08-01T22:18:12.307Z,2.40
2022-08-01T22:20:39.683Z,2.00
2022-08-01T22:23:06.779Z,1.85
2022-08-01T22:25:33.909Z,1.60
2022-08-01T22:28:06.222Z,2.30
2022-08-01T22:30:41.682Z,1.92
2022-08-01T22:33:17.280Z,1.88
2022-08-01T22:35:49.885Z,1.77
2022-08-01T22:38:18.864Z,1.50
2022-08-01T22:40:51.065Z,1.45
2022-08-01T22:43:34.278Z,1.60
2022-08-01T22:46:11.290Z,1.70
2022-08-01T22:49:09.047Z,1.60
2022-08-01T22:51:54.690Z,1.20
2022-08-01T22:54:28.131Z,0.90
2022-08-01T22:56:56.951Z,1.20
2022-08-01T22:59:42.958Z,1.13
2022-08-01T23:02:15.012Z,1.10
2022-08-01T23:04:49.673Z,0.90
2022-08-01T23:07:21.200Z,0.98
2022-08-01T23:09:54.000Z,0.80
2022-08-01T23:12:24.519Z,0.80
2022-08-01T23:14:56.397Z,0.65
2022-08-01T23:17:27.411Z,0.88
2022-08-01T23:20:04.355Z,1.02
2022-08-01T23:22:34.804Z,0.70
2022-08-01T23:25:07.094Z,0.98
2022-08-01T23:28:03.285Z,0.80
2022-08-01T23:30:28.847Z,0.60
2022-08-01T23:32:56.175Z,0.50
2022-08-01T23:35:24.392Z,0.70
2022-08-01T23:37:51.743Z,0.68
2022-08-01T23:40:19.192Z,0.75
2022-08-01T23:42:46.134Z,1.00
2022-08-01T23:45:12.926Z,0.57
2022-08-01T23:47:40.031Z,0.75
2022-08-01T23:50:11.450Z,0.90
2022-08-01T23:52:48.138Z,1.25
2022-08-01T23:55:17.215Z,1.30
2022-08-01T23:57:44.427Z,1.10
